sensor_id;sensor_type;location;lat;lon;timestamp;pressure;altitude;pressure_sealevel;temperature;humidity
37238;BME280;23129;49.662;8.448;2023-04-19T00:01:31;101450.50;;;12.10;nan
37238;BME280;23129;49.662;8.448;2023-04-19T00:03:59;101445.25;;;12.10;nan
37238;BME280;23129;49.662;8.448;2023-04-19T00:06:29;101442.59;;;12.12;nan
37238;BME280;23129;49.662;8.448;2023-04-19T00:08:59;101444.34;;;12.13;nan
37238;BME280;23129;49.662;8.448;2023-04-19T00:11:28;101439.94;;;12.13;nan
37238;BME280;23129;49.662;8.448;2023-04-19T00:13:56;101435.59;;;12.12;nan
37238;BME280;23129;49.662;8.448;2023-04-19T00:16:25;101440.78;;;12.14;nan
37238;BME280;23129;49.662;8.448;2023-04-19T00:18:54;101430.28;;;12.14;nan
37238;BME280;23129;49.662;8.448;2023-04-19T00:21:23;101434.63;;;12.16;nan
37238;BME280;23129;49.662;8.448;2023-04-19T00:23:52;101436.34;;;12.17;nan
37238;BME280;23129;49.662;8.448;2023-04-19T00:26:22;101432.84;;;12.18;nan
37238;BME280;23129;49.662;8.448;2023-04-19T00:28:51;101431.09;;;12.17;nan
37238;BME280;23129;49.662;8.448;2023-04-19T00:31:21;101429.34;;;12.16;nan
37238;BME280;23129;49.662;8.448;2023-04-19T00:33:50;101434.63;;;12.16;nan
37238;BME280;23129;49.662;8.448;2023-04-19T00:36:18;101432.91;;;12.15;nan
37238;BME280;23129;49.662;8.448;2023-04-19T00:38:47;101437.25;;;12.16;nan
37238;BME280;23129;49.662;8.448;2023-04-19T00:41:16;101435.53;;;12.15;nan
37238;BME280;23129;49.662;8.448;2023-04-19T00:43:45;101439.88;;;12.16;nan
37238;BME280;23129;49.662;8.448;2023-04-19T00:46:14;101439.88;;;12.16;nan
37238;BME280;23129;49.662;8.448;2023-04-19T00:48:44;101437.25;;;12.16;nan
37238;BME280;23129;49.662;8.448;2023-04-19T00:51:13;101434.63;;;12.16;nan
37238;BME280;23129;49.662;8.448;2023-04-19T00:53:42;101432.00;;;12.16;nan
37238;BME280;23129;49.662;8.448;2023-04-19T00:56:13;101438.97;;;12.17;nan
37238;BME280;23129;49.662;8.448;2023-04-19T00:58:42;101431.13;;;12.14;nan
37238;BME280;23129;49.662;8.448;2023-04-19T01:01:12;101430.25;;;12.15;nan
37238;BME280;23129;49.662;8.448;2023-04-19T01:03:41;101425.03;;;12.14;nan
37238;BME280;23129;49.662;8.448;2023-04-19T01:06:10;101431.13;;;12.14;nan
37238;BME280;23129;49.662;8.448;2023-04-19T01:08:41;101425.88;;;12.14;nan
37238;BME280;23129;49.662;8.448;2023-04-19T01:11:10;101420.63;;;12.14;nan
37238;BME280;23129;49.662;8.448;2023-04-19T01:13:38;101418.91;;;12.13;nan
37238;BME280;23129;49.662;8.448;2023-04-19T01:16:07;101425.94;;;12.11;nan
37238;BME280;23129;49.662;8.448;2023-04-19T01:18:36;101406.66;;;12.12;nan
37238;BME280;23129;49.662;8.448;2023-04-19T01:21:07;101411.06;;;12.10;nan
37238;BME280;23129;49.662;8.448;2023-04-19T01:23:37;101408.44;;;12.10;nan
37238;BME280;23129;49.662;8.448;2023-04-19T01:26:06;101408.50;;;12.07;nan
37238;BME280;23129;49.662;8.448;2023-04-19T01:28:35;101406.78;;;12.06;nan
37238;BME280;23129;49.662;8.448;2023-04-19T01:31:04;101412.03;;;12.06;nan
37238;BME280;23129;49.662;8.448;2023-04-19T01:33:33;101401.50;;;12.06;nan
37238;BME280;23129;49.662;8.448;2023-04-19T01:36:01;101400.63;;;12.05;nan
37238;BME280;23129;49.662;8.448;2023-04-19T01:38:30;101399.75;;;12.05;nan
37238;BME280;23129;49.662;8.448;2023-04-19T01:41:00;101393.63;;;12.04;nan
37238;BME280;23129;49.662;8.448;2023-04-19T01:43:31;101391.06;;;12.03;nan
37238;BME280;23129;49.662;8.448;2023-04-19T01:45:59;101394.56;;;12.02;nan
37238;BME280;23129;49.662;8.448;2023-04-19T01:48:28;101391.91;;;12.02;nan
37238;BME280;23129;49.662;8.448;2023-04-19T01:50:57;101391.97;;;12.00;nan
37238;BME280;23129;49.662;8.448;2023-04-19T01:53:26;101386.72;;;11.99;nan
37238;BME280;23129;49.662;8.448;2023-04-19T01:55:55;101387.63;;;11.98;nan
37238;BME280;23129;49.662;8.448;2023-04-19T01:58:26;101384.09;;;11.99;nan
37238;BME280;23129;49.662;8.448;2023-04-19T02:00:55;101378.84;;;11.99;nan
37238;BME280;23129;49.662;8.448;2023-04-19T02:03:24;101385.00;;;11.98;nan
37238;BME280;23129;49.662;8.448;2023-04-19T02:05:53;101380.66;;;11.97;nan
37238;BME280;23129;49.662;8.448;2023-04-19T02:08:21;101372.72;;;11.98;nan
37238;BME280;23129;49.662;8.448;2023-04-19T02:10:50;101375.38;;;11.97;nan
37238;BME280;23129;49.662;8.448;2023-04-19T02:13:19;101378.88;;;11.96;nan
37238;BME280;23129;49.662;8.448;2023-04-19T02:15:49;101366.59;;;11.96;nan
37238;BME280;23129;49.662;8.448;2023-04-19T02:18:18;101363.13;;;11.96;nan
37238;BME280;23129;49.662;8.448;2023-04-19T02:20:47;101365.78;;;11.94;nan
37238;BME280;23129;49.662;8.448;2023-04-19T02:23:16;101363.16;;;11.93;nan
37238;BME280;23129;49.662;8.448;2023-04-19T02:25:45;101363.16;;;11.93;nan
37238;BME280;23129;49.662;8.448;2023-04-19T02:28:14;101357.91;;;11.93;nan
37238;BME280;23129;49.662;8.448;2023-04-19T02:30:43;101358.81;;;11.92;nan
37238;BME280;23129;49.662;8.448;2023-04-19T02:33:14;101354.41;;;11.94;nan
37238;BME280;23129;49.662;8.448;2023-04-19T02:35:43;101351.78;;;11.92;nan
37238;BME280;23129;49.662;8.448;2023-04-19T02:38:12;101348.25;;;11.93;nan
37238;BME280;23129;49.662;8.448;2023-04-19T02:40:40;101352.66;;;11.93;nan
37238;BME280;23129;49.662;8.448;2023-04-19T02:43:09;101353.56;;;11.92;nan
37238;BME280;23129;49.662;8.448;2023-04-19T02:45:38;101350.94;;;11.92;nan
37238;BME280;23129;49.662;8.448;2023-04-19T02:48:07;101357.91;;;11.93;nan
37238;BME280;23129;49.662;8.448;2023-04-19T02:50:37;101357.06;;;11.92;nan
37238;BME280;23129;49.662;8.448;2023-04-19T02:53:07;101356.25;;;11.88;nan
37238;BME280;23129;49.662;8.448;2023-04-19T02:55:35;101354.50;;;11.87;nan
37238;BME280;23129;49.662;8.448;2023-04-19T02:58:09;101345.78;;;11.85;nan
37238;BME280;23129;49.662;8.448;2023-04-19T03:00:43;101345.78;;;11.85;nan
37238;BME280;23129;49.662;8.448;2023-04-19T03:03:15;101350.16;;;11.83;nan
37238;BME280;23129;49.662;8.448;2023-04-19T03:05:45;101345.81;;;11.82;nan
37238;BME280;23129;49.662;8.448;2023-04-19T03:08:14;101351.13;;;11.79;nan
37238;BME280;23129;49.662;8.448;2023-04-19T03:10:44;101341.50;;;11.78;nan
37238;BME280;23129;49.662;8.448;2023-04-19T03:13:13;101339.81;;;11.76;nan
37238;BME280;23129;49.662;8.448;2023-04-19T03:15:42;101335.47;;;11.73;nan
37238;BME280;23129;49.662;8.448;2023-04-19T03:18:11;101332.84;;;11.73;nan
37238;BME280;23129;49.662;8.448;2023-04-19T03:20:42;101333.72;;;11.72;nan
37238;BME280;23129;49.662;8.448;2023-04-19T03:23:12;101332.00;;;11.71;nan
37238;BME280;23129;49.662;8.448;2023-04-19T03:25:40;101331.19;;;11.68;nan
37238;BME280;23129;49.662;8.448;2023-04-19T03:28:25;101328.56;;;11.66;nan
37238;BME280;23129;49.662;8.448;2023-04-19T03:31:14;101333.84;;;11.66;nan
37238;BME280;23129;49.662;8.448;2023-04-19T03:33:44;101332.09;;;11.65;nan
37238;BME280;23129;49.662;8.448;2023-04-19T03:36:13;101323.38;;;11.63;nan
37238;BME280;23129;49.662;8.448;2023-04-19T03:38:44;101318.13;;;11.63;nan
37238;BME280;23129;49.662;8.448;2023-04-19T03:41:18;101319.94;;;11.61;nan
37238;BME280;23129;49.662;8.448;2023-04-19T03:43:51;101314.69;;;11.59;nan
37238;BME280;23129;49.662;8.448;2023-04-19T03:46:23;101312.13;;;11.56;nan
37238;BME280;23129;49.662;8.448;2023-04-19T03:48:51;101308.69;;;11.53;nan
37238;BME280;23129;49.662;8.448;2023-04-19T03:51:22;101305.25;;;11.49;nan
37238;BME280;23129;49.662;8.448;2023-04-19T03:53:52;101300.00;;;11.48;nan
37238;BME280;23129;49.662;8.448;2023-04-19T03:56:21;101307.94;;;11.45;nan
37238;BME280;23129;49.662;8.448;2023-04-19T03:58:51;101309.72;;;11.42;nan
37238;BME280;23129;49.662;8.448;2023-04-19T04:01:20;101309.72;;;11.42;nan
37238;BME280;23129;49.662;8.448;2023-04-19T04:03:51;101315.00;;;11.41;nan
37238;BME280;23129;49.662;8.448;2023-04-19T04:06:20;101309.78;;;11.39;nan
37238;BME280;23129;49.662;8.448;2023-04-19T04:08:49;101320.28;;;11.39;nan
37238;BME280;23129;49.662;8.448;2023-04-19T04:11:18;101315.94;;;11.40;nan
37238;BME280;23129;49.662;8.448;2023-04-19T04:13:48;101320.31;;;11.38;nan
37238;BME280;23129;49.662;8.448;2023-04-19T04:16:21;101322.09;;;11.37;nan
37238;BME280;23129;49.662;8.448;2023-04-19T04:18:52;101325.59;;;11.36;nan
37238;BME280;23129;49.662;8.448;2023-04-19T04:21:24;101325.59;;;11.36;nan
37238;BME280;23129;49.662;8.448;2023-04-19T04:23:56;101322.97;;;11.36;nan
37238;BME280;23129;49.662;8.448;2023-04-19T04:26:35;101329.97;;;11.37;nan
37238;BME280;23129;49.662;8.448;2023-04-19T04:29:13;101323.81;;;11.38;nan
37238;BME280;23129;49.662;8.448;2023-04-19T04:31:42;101327.34;;;11.37;nan
37238;BME280;23129;49.662;8.448;2023-04-19T04:34:13;101330.84;;;11.36;nan
37238;BME280;23129;49.662;8.448;2023-04-19T04:36:49;101328.19;;;11.38;nan
37238;BME280;23129;49.662;8.448;2023-04-19T04:39:22;101326.44;;;11.40;nan
37238;BME280;23129;49.662;8.448;2023-04-19T04:41:52;101332.53;;;11.40;nan
37238;BME280;23129;49.662;8.448;2023-04-19T04:44:24;101329.94;;;11.39;nan
37238;BME280;23129;49.662;8.448;2023-04-19T04:46:54;101335.19;;;11.40;nan
37238;BME280;23129;49.662;8.448;2023-04-19T04:49:26;101330.78;;;11.39;nan
37238;BME280;23129;49.662;8.448;2023-04-19T04:51:56;101325.47;;;11.42;nan
37238;BME280;23129;49.662;8.448;2023-04-19T04:54:27;101336.00;;;11.42;nan
37238;BME280;23129;49.662;8.448;2023-04-19T04:56:58;101325.44;;;11.46;nan
37238;BME280;23129;49.662;8.448;2023-04-19T04:59:27;101335.06;;;11.47;nan
37238;BME280;23129;49.662;8.448;2023-04-19T05:01:56;101332.44;;;11.47;nan
37238;BME280;23129;49.662;8.448;2023-04-19T05:04:25;101322.72;;;11.52;nan
37238;BME280;23129;49.662;8.448;2023-04-19T05:06:54;101325.28;;;11.55;nan
37238;BME280;23129;49.662;8.448;2023-04-19T05:09:25;101325.25;;;11.58;nan
37238;BME280;23129;49.662;8.448;2023-04-19T05:11:54;101326.97;;;11.59;nan
37238;BME280;23129;49.662;8.448;2023-04-19T05:14:25;101327.78;;;11.62;nan
37238;BME280;23129;49.662;8.448;2023-04-19T05:16:53;101323.38;;;11.63;nan
37238;BME280;23129;49.662;8.448;2023-04-19T05:19:22;101321.53;;;11.68;nan
37238;BME280;23129;49.662;8.448;2023-04-19T05:21:58;101320.63;;;11.71;nan
37238;BME280;23129;49.662;8.448;2023-04-19T05:24:27;101317.94;;;11.72;nan
37238;BME280;23129;49.662;8.448;2023-04-19T05:26:56;101323.19;;;11.72;nan
37238;BME280;23129;49.662;8.448;2023-04-19T05:29:26;101322.34;;;11.72;nan
37238;BME280;23129;49.662;8.448;2023-04-19T05:31:56;101317.06;;;11.73;nan
37238;BME280;23129;49.662;8.448;2023-04-19T05:34:30;101321.47;;;11.73;nan
37238;BME280;23129;49.662;8.448;2023-04-19T05:37:01;101325.81;;;11.74;nan
37238;BME280;23129;49.662;8.448;2023-04-19T05:39:30;101321.44;;;11.74;nan
37238;BME280;23129;49.662;8.448;2023-04-19T05:41:59;101325.78;;;11.75;nan
37238;BME280;23129;49.662;8.448;2023-04-19T05:44:29;101324.84;;;11.79;nan
37238;BME280;23129;49.662;8.448;2023-04-19T05:46:57;101324.00;;;11.79;nan
37238;BME280;23129;49.662;8.448;2023-04-19T05:49:49;101318.66;;;11.82;nan
37238;BME280;23129;49.662;8.448;2023-04-19T05:52:25;101328.22;;;11.84;nan
37238;BME280;23129;49.662;8.448;2023-04-19T05:54:55;101323.78;;;11.90;nan
37238;BME280;23129;49.662;8.448;2023-04-19T05:57:24;101315.78;;;11.96;nan
37238;BME280;23129;49.662;8.448;2023-04-19T05:59:54;101319.16;;;12.02;nan
37238;BME280;23129;49.662;8.448;2023-04-19T06:02:28;101315.47;;;12.11;nan
37238;BME280;23129;49.662;8.448;2023-04-19T06:04:57;101313.63;;;12.16;nan
37238;BME280;23129;49.662;8.448;2023-04-19T06:07:28;101315.22;;;12.23;nan
37238;BME280;23129;49.662;8.448;2023-04-19T06:10:00;101320.31;;;12.32;nan
37238;BME280;23129;49.662;8.448;2023-04-19T06:12:29;101315.78;;;12.39;nan
37238;BME280;23129;49.662;8.448;2023-04-19T06:14:59;101316.53;;;12.46;nan
37238;BME280;23129;49.662;8.448;2023-04-19T06:17:28;101311.13;;;12.52;nan
37238;BME280;23129;49.662;8.448;2023-04-19T06:19:57;101310.97;;;12.58;nan
37238;BME280;23129;49.662;8.448;2023-04-19T06:22:26;101317.75;;;12.68;nan
37238;BME280;23129;49.662;8.448;2023-04-19T06:24:55;101307.06;;;12.76;nan
37238;BME280;23129;49.662;8.448;2023-04-19T06:27:24;101319.16;;;12.85;nan
37238;BME280;23129;49.662;8.448;2023-04-19T06:29:52;101306.72;;;12.91;nan
37238;BME280;23129;49.662;8.448;2023-04-19T06:32:22;101313.47;;;13.03;nan
37238;BME280;23129;49.662;8.448;2023-04-19T06:34:52;101311.44;;;13.14;nan
37238;BME280;23129;49.662;8.448;2023-04-19T06:37:20;101316.47;;;13.23;nan
37238;BME280;23129;49.662;8.448;2023-04-19T06:39:49;101318.06;;;13.31;nan
37238;BME280;23129;49.662;8.448;2023-04-19T06:42:18;101327.56;;;13.38;nan
37238;BME280;23129;49.662;8.448;2023-04-19T06:44:48;101319.50;;;13.44;nan
37238;BME280;23129;49.662;8.448;2023-04-19T06:47:18;101313.22;;;13.50;nan
37238;BME280;23129;49.662;8.448;2023-04-19T06:49:48;101320.91;;;13.57;nan
37238;BME280;23129;49.662;8.448;2023-04-19T06:52:17;101317.38;;;13.58;nan
37238;BME280;23129;49.662;8.448;2023-04-19T06:54:47;101317.47;;;13.55;nan
37238;BME280;23129;49.662;8.448;2023-04-19T06:57:16;101320.28;;;13.47;nan
37238;BME280;23129;49.662;8.448;2023-04-19T06:59:45;101324.69;;;13.47;nan
37238;BME280;23129;49.662;8.448;2023-04-19T07:02:14;101317.38;;;13.58;nan
37238;BME280;23129;49.662;8.448;2023-04-19T07:04:43;101317.00;;;13.72;nan
37238;BME280;23129;49.662;8.448;2023-04-19T07:07:14;101310.41;;;13.88;nan
37238;BME280;23129;49.662;8.448;2023-04-19T07:09:43;101312.75;;;13.99;nan
37238;BME280;23129;49.662;8.448;2023-04-19T07:12:12;101312.41;;;14.11;nan
37238;BME280;23129;49.662;8.448;2023-04-19T07:14:40;101312.41;;;14.11;nan
37238;BME280;23129;49.662;8.448;2023-04-19T07:17:09;101303.94;;;14.00;nan
37238;BME280;23129;49.662;8.448;2023-04-19T07:19:39;101312.06;;;13.92;nan
37238;BME280;23129;49.662;8.448;2023-04-19T07:22:08;101310.44;;;13.87;nan
37238;BME280;23129;49.662;8.448;2023-04-19T07:24:39;101311.28;;;13.89;nan
37238;BME280;23129;49.662;8.448;2023-04-19T07:27:08;101303.47;;;13.86;nan
37238;BME280;23129;49.662;8.448;2023-04-19T07:29:37;101308.66;;;13.87;nan
37238;BME280;23129;49.662;8.448;2023-04-19T07:32:07;101306.00;;;13.89;nan
37238;BME280;23129;49.662;8.448;2023-04-19T07:34:37;101301.63;;;13.88;nan
37238;BME280;23129;49.662;8.448;2023-04-19T07:37:07;101305.22;;;13.85;nan
37238;BME280;23129;49.662;8.448;2023-04-19T07:39:35;101306.09;;;13.86;nan
37238;BME280;23129;49.662;8.448;2023-04-19T07:42:05;101305.16;;;13.88;nan
37238;BME280;23129;49.662;8.448;2023-04-19T07:44:34;101306.00;;;13.89;nan
37238;BME280;23129;49.662;8.448;2023-04-19T07:47:03;101301.56;;;13.91;nan
37238;BME280;23129;49.662;8.448;2023-04-19T07:49:33;101297.00;;;13.96;nan
37238;BME280;23129;49.662;8.448;2023-04-19T07:52:02;101298.59;;;14.02;nan
37238;BME280;23129;49.662;8.448;2023-04-19T07:54:30;101306.34;;;14.08;nan
37238;BME280;23129;49.662;8.448;2023-04-19T07:56:59;101291.28;;;14.11;nan
37238;BME280;23129;49.662;8.448;2023-04-19T07:59:29;101294.56;;;14.20;nan
37238;BME280;23129;49.662;8.448;2023-04-19T08:01:59;101289.19;;;14.23;nan
37238;BME280;23129;49.662;8.448;2023-04-19T08:04:28;101294.38;;;14.27;nan
37238;BME280;23129;49.662;8.448;2023-04-19T08:06:57;101286.44;;;14.27;nan
37238;BME280;23129;49.662;8.448;2023-04-19T08:09:26;101282.06;;;14.26;nan
37238;BME280;23129;49.662;8.448;2023-04-19T08:11:55;101287.31;;;14.28;nan
37238;BME280;23129;49.662;8.448;2023-04-19T08:14:24;101287.22;;;14.31;nan
37238;BME280;23129;49.662;8.448;2023-04-19T08:17:05;101281.75;;;14.37;nan
37238;BME280;23129;49.662;8.448;2023-04-19T08:19:50;101282.50;;;14.41;nan
37238;BME280;23129;49.662;8.448;2023-04-19T08:22:19;101283.38;;;14.41;nan
37238;BME280;23129;49.662;8.448;2023-04-19T08:24:49;101285.88;;;14.46;nan
37238;BME280;23129;49.662;8.448;2023-04-19T08:27:18;101279.75;;;14.45;nan
37238;BME280;23129;49.662;8.448;2023-04-19T08:29:47;101279.75;;;14.45;nan
37238;BME280;23129;49.662;8.448;2023-04-19T08:32:17;101279.69;;;14.47;nan
37238;BME280;23129;49.662;8.448;2023-04-19T08:34:46;101284.03;;;14.48;nan
37238;BME280;23129;49.662;8.448;2023-04-19T08:37:15;101275.16;;;14.50;nan
37238;BME280;23129;49.662;8.448;2023-04-19T08:39:44;101280.28;;;14.56;nan
37238;BME280;23129;49.662;8.448;2023-04-19T08:42:12;101275.94;;;14.55;nan
37238;BME280;23129;49.662;8.448;2023-04-19T08:45:00;101261.81;;;14.56;nan
37238;BME280;23129;49.662;8.448;2023-04-19T08:47:36;101269.78;;;14.55;nan
37238;BME280;23129;49.662;8.448;2023-04-19T08:50:20;101268.94;;;14.54;nan
37238;BME280;23129;49.662;8.448;2023-04-19T08:52:59;101276.03;;;14.52;nan
37238;BME280;23129;49.662;8.448;2023-04-19T08:55:47;101256.63;;;14.53;nan
37238;BME280;23129;49.662;8.448;2023-04-19T08:58:19;101267.97;;;14.57;nan
37238;BME280;23129;49.662;8.448;2023-04-19T09:00:59;101247.72;;;14.57;nan
37238;BME280;23129;49.662;8.448;2023-04-19T09:03:30;101258.19;;;14.60;nan
37238;BME280;23129;49.662;8.448;2023-04-19T09:06:07;101255.53;;;14.60;nan
37238;BME280;23129;49.662;8.448;2023-04-19T09:08:36;101263.47;;;14.60;nan
37238;BME280;23129;49.662;8.448;2023-04-19T09:11:05;101255.34;;;14.67;nan
37238;BME280;23129;49.662;8.448;2023-04-19T09:13:34;101257.69;;;14.76;nan
37238;BME280;23129;49.662;8.448;2023-04-19T09:16:05;101252.31;;;14.79;nan
37238;BME280;23129;49.662;8.448;2023-04-19T09:18:52;101250.41;;;14.84;nan
37238;BME280;23129;49.662;8.448;2023-04-19T09:21:29;101248.75;;;14.80;nan
37238;BME280;23129;49.662;8.448;2023-04-19T09:23:58;101249.50;;;14.83;nan
37238;BME280;23129;49.662;8.448;2023-04-19T09:26:30;101246.63;;;14.91;nan
37238;BME280;23129;49.662;8.448;2023-04-19T09:29:00;101241.19;;;14.96;nan
37238;BME280;23129;49.662;8.448;2023-04-19T09:31:33;101241.03;;;15.00;nan
37238;BME280;23129;49.662;8.448;2023-04-19T09:34:18;101232.38;;;14.95;nan
37238;BME280;23129;49.662;8.448;2023-04-19T09:36:48;101236.88;;;14.93;nan
37238;BME280;23129;49.662;8.448;2023-04-19T09:39:30;101235.84;;;14.97;nan
37238;BME280;23129;49.662;8.448;2023-04-19T09:41:59;101228.84;;;14.96;nan
37238;BME280;23129;49.662;8.448;2023-04-19T09:44:28;101234.13;;;14.96;nan
37238;BME280;23129;49.662;8.448;2023-04-19T09:47:00;101226.91;;;15.01;nan
37238;BME280;23129;49.662;8.448;2023-04-19T09:49:30;101228.31;;;15.12;nan
37238;BME280;23129;49.662;8.448;2023-04-19T09:52:04;101228.13;;;15.18;nan
37238;BME280;23129;49.662;8.448;2023-04-19T09:54:33;101217.38;;;15.22;nan
37238;BME280;23129;49.662;8.448;2023-04-19T09:57:02;101221.47;;;15.31;nan
37238;BME280;23129;49.662;8.448;2023-04-19T09:59:30;101220.47;;;15.35;nan
37238;BME280;23129;49.662;8.448;2023-04-19T10:02:00;101209.72;;;15.40;nan
37238;BME280;23129;49.662;8.448;2023-04-19T10:04:30;101210.56;;;15.40;nan
37238;BME280;23129;49.662;8.448;2023-04-19T10:07:19;101212.22;;;15.44;nan
37238;BME280;23129;49.662;8.448;2023-04-19T10:09:53;101205.78;;;15.51;nan
37238;BME280;23129;49.662;8.448;2023-04-19T10:12:26;101207.28;;;15.59;nan
37238;BME280;23129;49.662;8.448;2023-04-19T10:14:58;101206.09;;;15.67;nan
37238;BME280;23129;49.662;8.448;2023-04-19T10:17:27;101200.19;;;15.84;nan
37238;BME280;23129;49.662;8.448;2023-04-19T10:20:03;101202.75;;;16.09;nan
37238;BME280;23129;49.662;8.448;2023-04-19T10:22:34;101192.34;;;16.28;nan
37238;BME280;23129;49.662;8.448;2023-04-19T10:25:09;101194.94;;;16.52;nan
37238;BME280;23129;49.662;8.448;2023-04-19T10:27:39;101197.13;;;16.62;nan
37238;BME280;23129;49.662;8.448;2023-04-19T10:30:19;101182.50;;;16.76;nan
37238;BME280;23129;49.662;8.448;2023-04-19T10:32:52;101186.16;;;16.94;nan
37238;BME280;23129;49.662;8.448;2023-04-19T10:35:27;101173.16;;;17.08;nan
37238;BME280;23129;49.662;8.448;2023-04-19T10:38:08;101177.94;;;17.20;nan
37238;BME280;23129;49.662;8.448;2023-04-19T10:40:58;101172.31;;;17.47;nan
37238;BME280;23129;49.662;8.448;2023-04-19T10:43:29;101163.88;;;17.57;nan
37238;BME280;23129;49.662;8.448;2023-04-19T10:46:05;101162.19;;;17.75;nan
37238;BME280;23129;49.662;8.448;2023-04-19T10:48:39;101157.00;;;17.93;nan
37238;BME280;23129;49.662;8.448;2023-04-19T10:51:16;101152.03;;;18.04;nan
37238;BME280;23129;49.662;8.448;2023-04-19T10:53:56;101135.88;;;18.09;nan
37238;BME280;23129;49.662;8.448;2023-04-19T10:57:02;101127.66;;;18.32;nan
37238;BME280;23129;49.662;8.448;2023-04-19T10:59:32;101127.34;;;18.38;nan
37238;BME280;23129;49.662;8.448;2023-04-19T11:02:03;101122.75;;;18.42;nan
37238;BME280;23129;49.662;8.448;2023-04-19T11:05:00;101113.78;;;18.62;nan
37238;BME280;23129;49.662;8.448;2023-04-19T11:07:40;101111.91;;;18.64;nan
37238;BME280;23129;49.662;8.448;2023-04-19T11:10:09;101105.56;;;18.66;nan
37238;BME280;23129;49.662;8.448;2023-04-19T11:12:42;101108.72;;;18.75;nan
37238;BME280;23129;49.662;8.448;2023-04-19T11:15:11;101103.25;;;18.78;nan
37238;BME280;23129;49.662;8.448;2023-04-19T11:17:40;101101.38;;;18.80;nan
37238;BME280;23129;49.662;8.448;2023-04-19T11:20:10;101090.81;;;18.78;nan
37238;BME280;23129;49.662;8.448;2023-04-19T11:22:44;101091.69;;;18.79;nan
37238;BME280;23129;49.662;8.448;2023-04-19T11:25:15;101084.94;;;18.89;nan
37238;BME280;23129;49.662;8.448;2023-04-19T11:27:47;101086.94;;;19.19;nan
37238;BME280;23129;49.662;8.448;2023-04-19T11:30:18;101069.31;;;19.49;nan
37238;BME280;23129;49.662;8.448;2023-04-19T11:32:51;101078.34;;;19.63;nan
37238;BME280;23129;49.662;8.448;2023-04-19T11:35:21;101069.75;;;19.57;nan
37238;BME280;23129;49.662;8.448;2023-04-19T11:37:52;101073.84;;;19.47;nan
37238;BME280;23129;49.662;8.448;2023-04-19T11:40:23;101067.25;;;19.54;nan
37238;BME280;23129;49.662;8.448;2023-04-19T11:42:55;101065.75;;;19.66;nan
37238;BME280;23129;49.662;8.448;2023-04-19T11:45:25;101064.56;;;19.72;nan
37238;BME280;23129;49.662;8.448;2023-04-19T11:47:59;101062.06;;;19.69;nan
37238;BME280;23129;49.662;8.448;2023-04-19T11:50:36;101062.81;;;19.71;nan
37238;BME280;23129;49.662;8.448;2023-04-19T11:53:12;101057.13;;;19.77;nan
37238;BME280;23129;49.662;8.448;2023-04-19T11:55:45;101049.41;;;19.88;nan
37238;BME280;23129;49.662;8.448;2023-04-19T11:58:26;101041.31;;;20.05;nan
37238;BME280;23129;49.662;8.448;2023-04-19T12:00:56;101047.06;;;19.98;nan
37238;BME280;23129;49.662;8.448;2023-04-19T12:03:27;101037.56;;;19.94;nan
37238;BME280;23129;49.662;8.448;2023-04-19T12:05:57;101039.44;;;20.08;nan
37238;BME280;23129;49.662;8.448;2023-04-19T12:08:32;101038.16;;;20.29;nan
37238;BME280;23129;49.662;8.448;2023-04-19T12:11:03;101041.69;;;20.60;nan
37238;BME280;23129;49.662;8.448;2023-04-19T12:13:32;101032.78;;;20.89;nan
37238;BME280;23129;49.662;8.448;2023-04-19T12:16:03;101025.66;;;21.18;nan
37238;BME280;23129;49.662;8.448;2023-04-19T12:18:45;101032.31;;;21.40;nan
37238;BME280;23129;49.662;8.448;2023-04-19T12:21:25;101009.91;;;21.42;nan
37238;BME280;23129;49.662;8.448;2023-04-19T12:23:57;101018.38;;;21.49;nan
37238;BME280;23129;49.662;8.448;2023-04-19T12:26:27;101012.69;;;21.68;nan
37238;BME280;23129;49.662;8.448;2023-04-19T12:28:58;101005.22;;;22.00;nan
37238;BME280;23129;49.662;8.448;2023-04-19T12:31:29;100998.91;;;22.28;nan
37238;BME280;23129;49.662;8.448;2023-04-19T12:33:58;100998.59;;;22.46;nan
37238;BME280;23129;49.662;8.448;2023-04-19T12:36:27;100996.13;;;22.43;nan
37238;BME280;23129;49.662;8.448;2023-04-19T12:39:03;100999.50;;;22.59;nan
37238;BME280;23129;49.662;8.448;2023-04-19T12:41:32;100994.44;;;22.93;nan
37238;BME280;23129;49.662;8.448;2023-04-19T12:44:00;100996.75;;;23.23;nan
37238;BME280;23129;49.662;8.448;2023-04-19T12:46:29;100989.09;;;23.18;nan
37238;BME280;23129;49.662;8.448;2023-04-19T12:48:58;100992.19;;;22.87;nan
37238;BME280;23129;49.662;8.448;2023-04-19T12:51:26;100988.44;;;22.64;nan
37238;BME280;23129;49.662;8.448;2023-04-19T12:53:55;100992.63;;;22.55;nan
37238;BME280;23129;49.662;8.448;2023-04-19T12:56:25;100974.66;;;22.70;nan
37238;BME280;23129;49.662;8.448;2023-04-19T12:58:54;100975.59;;;22.82;nan
37238;BME280;23129;49.662;8.448;2023-04-19T13:01:23;100971.97;;;23.08;nan
37238;BME280;23129;49.662;8.448;2023-04-19T13:03:51;100966.81;;;23.42;nan
37238;BME280;23129;49.662;8.448;2023-04-19T13:06:23;100949.06;;;23.41;nan
37238;BME280;23129;49.662;8.448;2023-04-19T13:08:52;100967.63;;;23.31;nan
37238;BME280;23129;49.662;8.448;2023-04-19T13:11:21;100960.66;;;23.29;nan
37238;BME280;23129;49.662;8.448;2023-04-19T13:13:51;100955.16;;;23.43;nan
37238;BME280;23129;49.662;8.448;2023-04-19T13:16:20;100947.91;;;23.56;nan
37238;BME280;23129;49.662;8.448;2023-04-19T13:18:49;100949.69;;;23.68;nan
37238;BME280;23129;49.662;8.448;2023-04-19T13:21:19;100948.41;;;23.74;nan
37238;BME280;23129;49.662;8.448;2023-04-19T13:23:47;100937.84;;;23.84;nan
37238;BME280;23129;49.662;8.448;2023-04-19T13:26:16;100932.00;;;23.90;nan
37238;BME280;23129;49.662;8.448;2023-04-19T13:28:45;100932.94;;;24.13;nan
37238;BME280;23129;49.662;8.448;2023-04-19T13:31:14;100928.53;;;24.58;nan